createdAt,value
2023-04-13T00:00:54.777Z,80.71
2023-04-13T00:03:24.314Z,81.01
2023-04-13T00:05:53.789Z,80.44
2023-04-13T00:08:23.446Z,80.87
2023-04-13T00:10:51.758Z,80.74
2023-04-13T00:13:19.659Z,80.61
2023-04-13T00:15:47.734Z,80.73
2023-04-13T00:18:15.531Z,80.88
2023-04-13T00:20:43.765Z,80.69
2023-04-13T00:23:12.492Z,80.74
2023-04-13T00:25:40.509Z,80.94
2023-04-13T00:28:09.141Z,80.90
2023-04-13T00:30:37.567Z,80.91
2023-04-13T00:33:06.421Z,81.15
2023-04-13T00:35:34.901Z,81.08
2023-04-13T00:38:03.424Z,81.30
2023-04-13T00:40:31.681Z,81.19
2023-04-13T00:43:02.413Z,81.28
2023-04-13T00:45:33.822Z,81.50
2023-04-13T00:48:01.719Z,81.47
2023-04-13T00:50:29.689Z,81.75
2023-04-13T00:52:58.481Z,81.38
2023-04-13T00:55:27.921Z,81.63
2023-04-13T00:57:58.115Z,81.78
2023-04-13T01:00:27.370Z,81.66
2023-04-13T01:02:56.182Z,81.88
2023-04-13T01:05:27.125Z,81.72
2023-04-13T01:08:09.385Z,82.02
2023-04-13T01:10:50.531Z,81.73
2023-04-13T01:13:44.487Z,81.95
2023-04-13T01:16:19.663Z,81.93
2023-04-13T01:18:52.524Z,82.25
2023-04-13T01:21:26.116Z,82.27
2023-04-13T01:24:21.937Z,82.15
2023-04-13T01:26:58.451Z,82.58
2023-04-13T01:29:27.809Z,82.17
2023-04-13T01:31:57.268Z,82.28
2023-04-13T01:34:25.614Z,82.39
2023-04-13T01:36:54.459Z,82.38
2023-04-13T01:39:25.638Z,82.53
2023-04-13T01:42:02.420Z,82.49
2023-04-13T01:44:35.069Z,82.63
2023-04-13T01:47:16.313Z,82.58
2023-04-13T01:50:33.919Z,82.71
2023-04-13T01:53:17.807Z,82.82
2023-04-13T01:55:48.743Z,83.00
2023-04-13T01:58:19.518Z,83.13
2023-04-13T02:00:58.148Z,83.49
2023-04-13T02:03:27.398Z,83.49
2023-04-13T02:05:56.766Z,83.20
2023-04-13T02:08:25.100Z,82.79
2023-04-13T02:10:52.906Z,83.13
2023-04-13T02:13:20.827Z,83.20
2023-04-13T02:15:48.903Z,83.15
2023-04-13T02:18:17.636Z,83.23
2023-04-13T02:20:46.581Z,83.47
2023-04-13T02:23:18.127Z,83.40
2023-04-13T02:25:47.869Z,83.26
2023-04-13T02:28:18.273Z,83.49
2023-04-13T02:30:47.392Z,83.40
2023-04-13T02:33:15.393Z,83.56
2023-04-13T02:35:43.758Z,83.59
2023-04-13T02:38:12.293Z,83.75
2023-04-13T02:40:44.015Z,83.65
2023-04-13T02:43:12.624Z,83.62
2023-04-13T02:45:41.536Z,83.59
2023-04-13T02:48:10.799Z,83.59
2023-04-13T02:50:39.307Z,83.55
2023-04-13T02:53:09.476Z,83.64
2023-04-13T02:55:39.183Z,83.96
2023-04-13T02:58:12.463Z,84.11
2023-04-13T03:00:42.615Z,83.91
2023-04-13T03:03:12.162Z,83.78
2023-04-13T03:05:46.227Z,83.70
2023-04-13T03:08:17.700Z,83.77
2023-04-13T03:11:14.820Z,83.81
2023-04-13T03:13:48.536Z,83.74
2023-04-13T03:16:17.897Z,83.78
2023-04-13T03:18:46.623Z,83.93
2023-04-13T03:21:14.997Z,83.82
2023-04-13T03:23:59.288Z,84.06
2023-04-13T03:26:27.781Z,83.85
2023-04-13T03:28:57.353Z,83.77
2023-04-13T03:31:26.674Z,83.81
2023-04-13T03:33:55.170Z,84.22
2023-04-13T03:36:23.212Z,84.01
2023-04-13T03:38:51.146Z,83.87
2023-04-13T03:41:19.364Z,84.21
2023-04-13T03:43:47.538Z,83.96
2023-04-13T03:46:16.217Z,84.00
2023-04-13T03:48:44.459Z,84.43
2023-04-13T03:51:16.485Z,84.45
2023-04-13T03:53:52.215Z,84.16
2023-04-13T03:56:23.711Z,84.29
2023-04-13T03:58:51.792Z,84.33
2023-04-13T04:01:23.619Z,84.13
2023-04-13T04:03:56.137Z,84.31
2023-04-13T04:06:27.278Z,84.26
2023-04-13T04:09:06.863Z,84.37
2023-04-13T04:11:42.406Z,84.67
2023-04-13T04:14:10.916Z,84.42
2023-04-13T04:16:39.561Z,85.16
2023-04-13T04:19:15.417Z,85.27
2023-04-13T04:21:45.010Z,85.02
2023-04-13T04:24:23.723Z,85.10
2023-04-13T04:26:59.601Z,85.44
2023-04-13T04:29:36.591Z,85.26
2023-04-13T04:32:13.221Z,85.24
2023-04-13T04:34:41.300Z,85.53
2023-04-13T04:37:20.114Z,85.78
2023-04-13T04:39:50.854Z,85.80
2023-04-13T04:42:19.060Z,86.14
2023-04-13T04:44:50.237Z,86.51
2023-04-13T04:47:20.063Z,86.17
2023-04-13T04:50:13.104Z,85.78
2023-04-13T04:52:42.474Z,85.78
2023-04-13T04:55:10.768Z,85.97
2023-04-13T04:57:40.491Z,85.77
2023-04-13T05:00:10.883Z,85.99
2023-04-13T05:02:40.081Z,85.66
2023-04-13T05:05:11.995Z,85.50
2023-04-13T05:07:40.072Z,85.40
2023-04-13T05:10:10.027Z,85.19
2023-04-13T05:12:40.858Z,85.17
2023-04-13T05:15:09.824Z,84.92
2023-04-13T05:17:37.961Z,84.60
2023-04-13T05:20:07.381Z,84.80
2023-04-13T05:22:46.386Z,84.78
2023-04-13T05:25:14.738Z,84.80
2023-04-13T05:27:43.982Z,84.86
2023-04-13T05:30:12.928Z,84.72
2023-04-13T05:32:43.888Z,84.78
2023-04-13T05:35:12.124Z,84.49
2023-04-13T05:37:40.446Z,84.42
2023-04-13T05:40:14.704Z,84.44
2023-04-13T05:42:43.852Z,84.15
2023-04-13T05:45:17.239Z,83.99
2023-04-13T05:48:06.487Z,83.92
2023-04-13T05:50:35.070Z,83.99
2023-04-13T05:53:05.829Z,84.25
2023-04-13T05:55:45.605Z,84.49
2023-04-13T05:58:15.773Z,84.41
2023-04-13T06:00:43.757Z,84.98
2023-04-13T06:03:13.296Z,85.11
2023-04-13T06:05:41.682Z,85.21
2023-04-13T06:08:10.740Z,85.22
2023-04-13T06:10:39.909Z,85.32
2023-04-13T06:13:08.442Z,85.59
2023-04-13T06:15:38.915Z,85.75
2023-04-13T06:18:06.831Z,86.08
2023-04-13T06:20:35.025Z,86.28
2023-04-13T06:23:03.258Z,86.41
2023-04-13T06:25:31.772Z,86.73
2023-04-13T06:28:02.500Z,87.00
2023-04-13T06:30:31.874Z,86.80
2023-04-13T06:33:01.013Z,86.95
2023-04-13T06:35:30.623Z,86.83
2023-04-13T06:38:01.623Z,86.94
2023-04-13T06:40:34.993Z,86.91
2023-04-13T06:43:08.931Z,86.90
2023-04-13T06:45:48.729Z,86.26
2023-04-13T06:48:21.993Z,85.51
2023-04-13T06:50:52.574Z,85.29
2023-04-13T06:53:20.965Z,84.82
2023-04-13T06:55:49.120Z,84.13
2023-04-13T06:58:17.102Z,83.70
2023-04-13T07:00:45.100Z,82.88
2023-04-13T07:03:13.461Z,82.77
2023-04-13T07:05:41.710Z,82.90
2023-04-13T07:08:13.158Z,82.49
2023-04-13T07:10:42.845Z,82.13
2023-04-13T07:13:18.952Z,81.81
2023-04-13T07:15:47.226Z,81.38
2023-04-13T07:18:15.211Z,81.03
2023-04-13T07:20:43.069Z,80.41
2023-04-13T07:23:11.809Z,79.97
2023-04-13T07:25:40.226Z,79.36
2023-04-13T07:28:13.396Z,78.94
2023-04-13T07:30:45.107Z,78.99
2023-04-13T07:33:13.613Z,78.08
2023-04-13T07:35:41.609Z,78.04
2023-04-13T07:38:12.189Z,77.49
2023-04-13T07:40:40.047Z,77.51
2023-04-13T07:43:10.241Z,76.84
2023-04-13T07:45:39.779Z,75.12
2023-04-13T07:48:08.176Z,74.99
2023-04-13T07:50:43.861Z,74.14
2023-04-13T07:53:16.431Z,73.39
2023-04-13T07:55:45.141Z,73.36
2023-04-13T07:58:13.795Z,73.28
2023-04-13T08:00:42.340Z,73.45
2023-04-13T08:03:10.384Z,73.06
2023-04-13T08:05:38.736Z,72.19
2023-04-13T08:08:06.490Z,72.20
2023-04-13T08:10:35.326Z,72.19
2023-04-13T08:13:04.952Z,72.07
2023-04-13T08:15:33.315Z,72.07
2023-04-13T08:18:03.859Z,71.82
2023-04-13T08:20:34.106Z,71.19
2023-04-13T08:23:02.525Z,70.82
2023-04-13T08:25:30.567Z,70.46
2023-04-13T08:27:58.325Z,70.05
2023-04-13T08:30:26.412Z,69.58
2023-04-13T08:32:58.548Z,69.34
2023-04-13T08:35:27.828Z,68.92
2023-04-13T08:37:56.663Z,68.84
2023-04-13T08:40:25.349Z,68.29
2023-04-13T08:42:55.968Z,68.02
2023-04-13T08:45:24.302Z,67.81
2023-04-13T08:47:52.819Z,67.81
2023-04-13T08:50:22.765Z,67.46
2023-04-13T08:52:54.513Z,67.53
2023-04-13T08:55:23.050Z,67.10
2023-04-13T08:57:55.589Z,66.38
2023-04-13T09:00:25.068Z,66.20
2023-04-13T09:03:04.977Z,66.41
2023-04-13T09:05:39.546Z,66.40
2023-04-13T09:08:08.810Z,66.18
2023-04-13T09:10:40.826Z,65.85
2023-04-13T09:13:09.586Z,65.05
2023-04-13T09:15:37.895Z,64.51
2023-04-13T09:18:13.775Z,63.41
2023-04-13T09:20:58.933Z,62.64
2023-04-13T09:23:26.793Z,62.03
2023-04-13T09:26:08.063Z,61.05
2023-04-13T09:28:49.949Z,61.22
2023-04-13T09:31:17.887Z,60.90
2023-04-13T09:33:49.253Z,60.50
2023-04-13T09:36:19.664Z,59.45
2023-04-13T09:38:53.087Z,59.38
2023-04-13T09:41:40.799Z,59.10
2023-04-13T09:44:18.144Z,58.14
2023-04-13T09:46:57.718Z,57.96
2023-04-13T09:49:26.272Z,57.80
2023-04-13T09:51:54.595Z,57.21
2023-04-13T09:54:22.976Z,56.32
2023-04-13T09:56:58.073Z,56.64
2023-04-13T09:59:27.439Z,55.49
2023-04-13T10:01:55.719Z,54.65
2023-04-13T10:04:24.730Z,53.59
2023-04-13T10:06:52.626Z,52.92
2023-04-13T10:09:21.437Z,53.74
2023-04-13T10:11:54.215Z,54.26
2023-04-13T10:14:26.713Z,54.11
2023-04-13T10:17:16.847Z,53.57
2023-04-13T10:19:51.196Z,53.41
2023-04-13T10:22:22.923Z,53.58
2023-04-13T10:24:53.115Z,54.06
2023-04-13T10:27:23.621Z,53.61
2023-04-13T10:29:51.771Z,52.72
2023-04-13T10:32:21.332Z,51.89
2023-04-13T10:34:50.116Z,51.53
2023-04-13T10:37:24.467Z,50.86
2023-04-13T10:40:06.351Z,49.50
2023-04-13T10:42:52.397Z,49.28
2023-04-13T10:45:24.738Z,48.27
2023-04-13T10:47:56.422Z,48.10
2023-04-13T10:50:27.771Z,47.38
2023-04-13T10:53:07.535Z,47.29
2023-04-13T10:55:35.854Z,47.54
2023-04-13T10:58:14.816Z,46.99
2023-04-13T11:00:46.706Z,47.28
2023-04-13T11:03:17.478Z,47.26
2023-04-13T11:05:48.503Z,46.93
2023-04-13T11:08:19.262Z,46.97
2023-04-13T11:10:55.392Z,46.90
2023-04-13T11:13:25.553Z,46.42
2023-04-13T11:16:04.249Z,45.53
2023-04-13T11:18:32.458Z,45.11
2023-04-13T11:21:03.938Z,44.38
2023-04-13T11:23:34.945Z,44.26
2023-04-13T11:26:04.876Z,44.04
2023-04-13T11:28:53.464Z,43.88
2023-04-13T11:31:21.492Z,44.06
2023-04-13T11:33:49.582Z,42.52
2023-04-13T11:36:20.176Z,42.82
2023-04-13T11:38:48.251Z,42.88
2023-04-13T11:41:17.497Z,42.53
2023-04-13T11:43:48.792Z,42.41
2023-04-13T11:46:25.260Z,41.70
2023-04-13T11:48:55.931Z,41.72
2023-04-13T11:51:24.600Z,41.13
2023-04-13T11:53:53.241Z,40.75
2023-04-13T11:56:21.883Z,40.46
2023-04-13T11:58:51.886Z,40.28
2023-04-13T12:01:26.906Z,40.09
2023-04-13T12:04:12.632Z,40.24
2023-04-13T12:06:47.408Z,39.88
2023-04-13T12:09:18.081Z,39.82
2023-04-13T12:12:07.742Z,39.99
2023-04-13T12:17:37.578Z,38.69
2023-04-13T12:20:04.900Z,38.46
2023-04-13T12:22:52.439Z,37.71
2023-04-13T12:25:25.871Z,38.14
2023-04-13T12:27:54.338Z,37.84
2023-04-13T12:30:23.421Z,37.79
2023-04-13T12:32:53.686Z,38.14
2023-04-13T12:35:21.898Z,37.86
2023-04-13T12:37:52.894Z,38.17
2023-04-13T12:40:20.940Z,38.78
2023-04-13T12:42:49.332Z,39.33
2023-04-13T12:45:17.685Z,39.16
2023-04-13T12:47:45.588Z,39.58
2023-04-13T12:50:13.683Z,39.24
2023-04-13T12:52:43.278Z,39.10
2023-04-13T12:55:11.486Z,38.94
2023-04-13T12:57:40.069Z,39.28
2023-04-13T13:00:12.628Z,39.33
2023-04-13T13:02:41.058Z,38.93
2023-04-13T13:05:09.664Z,38.96
2023-04-13T13:07:38.189Z,38.19
2023-04-13T13:10:14.930Z,38.02
2023-04-13T13:12:54.368Z,38.37
2023-04-13T13:15:22.386Z,38.16
2023-04-13T13:17:50.300Z,38.37
2023-04-13T13:20:18.264Z,38.15
2023-04-13T13:22:47.425Z,37.96
2023-04-13T13:25:16.400Z,37.91
2023-04-13T13:30:15.643Z,37.94
2023-04-13T13:32:43.628Z,37.97
2023-04-13T13:35:11.772Z,38.18
2023-04-13T13:37:39.894Z,37.98
2023-04-13T13:40:13.212Z,37.90
2023-04-13T13:42:51.347Z,38.23
2023-04-13T13:45:21.467Z,38.17
2023-04-13T13:47:54.276Z,38.11
2023-04-13T13:50:28.891Z,37.88
2023-04-13T13:53:03.071Z,38.27
2023-04-13T13:55:34.516Z,38.18
2023-04-13T13:58:02.689Z,37.86
2023-04-13T14:00:31.316Z,37.73
2023-04-13T14:02:59.426Z,37.38
2023-04-13T14:05:27.456Z,37.13
2023-04-13T14:07:55.275Z,37.64
2023-04-13T14:10:23.111Z,37.67
2023-04-13T14:12:52.066Z,37.40
2023-04-13T14:15:20.345Z,37.69
2023-04-13T14:17:58.796Z,37.82
2023-04-13T14:20:35.616Z,37.81
2023-04-13T14:23:03.782Z,37.82
2023-04-13T14:25:31.717Z,37.52
2023-04-13T14:27:59.540Z,37.21
2023-04-13T14:30:28.337Z,37.24
2023-04-13T14:32:57.020Z,36.70
2023-04-13T14:35:24.961Z,36.91
2023-04-13T14:37:53.165Z,37.11
2023-04-13T14:40:23.378Z,37.58
2023-04-13T14:42:53.051Z,37.81
2023-04-13T14:45:21.331Z,37.61
2023-04-13T14:47:50.215Z,37.26
2023-04-13T14:50:18.400Z,37.02
2023-04-13T14:52:47.137Z,37.05
2023-04-13T14:55:15.711Z,37.13
2023-04-13T14:57:43.867Z,37.09
2023-04-13T15:00:22.612Z,37.01
2023-04-13T15:02:52.647Z,37.01
2023-04-13T15:05:21.266Z,36.97
2023-04-13T15:07:51.111Z,37.36
2023-04-13T15:10:20.174Z,37.61
2023-04-13T15:12:48.522Z,37.25
2023-04-13T15:15:16.577Z,37.14
2023-04-13T15:17:44.642Z,37.15
2023-04-13T15:20:12.772Z,37.00
2023-04-13T15:22:40.851Z,36.86
2023-04-13T15:25:09.527Z,37.01
2023-04-13T15:27:37.549Z,37.05
2023-04-13T15:30:07.787Z,37.14
2023-04-13T15:32:36.407Z,37.08
2023-04-13T15:35:04.543Z,37.19
2023-04-13T15:37:32.634Z,37.24
2023-04-13T15:40:01.695Z,37.67
2023-04-13T15:42:29.773Z,37.58
2023-04-13T15:44:57.977Z,37.44
2023-04-13T15:47:28.042Z,37.68
2023-04-13T15:49:55.918Z,37.98
2023-04-13T15:52:23.846Z,38.41
2023-04-13T15:54:51.598Z,38.93
2023-04-13T15:57:19.405Z,39.53
2023-04-13T15:59:47.451Z,39.09
2023-04-13T16:02:15.522Z,39.26
2023-04-13T16:04:43.864Z,39.03
2023-04-13T16:07:14.589Z,39.55
2023-04-13T16:09:44.152Z,39.77
2023-04-13T16:12:12.125Z,39.72
2023-04-13T16:14:45.396Z,39.98
2023-04-13T16:17:15.207Z,40.40
2023-04-13T16:19:47.179Z,40.55
2023-04-13T16:22:16.451Z,40.45
2023-04-13T16:24:44.328Z,40.87
2023-04-13T16:27:12.255Z,40.65
2023-04-13T16:29:41.751Z,40.98
2023-04-13T16:32:09.560Z,41.05
2023-04-13T16:34:37.444Z,41.12
2023-04-13T16:37:05.220Z,41.30
2023-04-13T16:39:32.979Z,41.46
2023-04-13T16:42:01.090Z,41.69
2023-04-13T16:44:28.863Z,41.77
2023-04-13T16:46:56.839Z,41.72
2023-04-13T16:49:24.777Z,41.67
2023-04-13T16:51:52.711Z,41.80
2023-04-13T16:54:21.227Z,41.82
2023-04-13T16:56:49.179Z,42.19
2023-04-13T16:59:17.029Z,42.54
2023-04-13T17:01:45.964Z,42.61
2023-04-13T17:04:14.207Z,42.82
2023-04-13T17:06:42.453Z,42.98
2023-04-13T17:09:10.605Z,43.06
2023-04-13T17:11:38.991Z,43.38
2023-04-13T17:14:10.062Z,43.70
2023-04-13T17:16:38.249Z,44.04
2023-04-13T17:19:32.851Z,44.14
2023-04-13T17:22:00.629Z,44.46
2023-04-13T17:24:28.746Z,44.91
2023-04-13T17:26:57.016Z,45.21
2023-04-13T17:29:24.962Z,45.82
2023-04-13T17:31:53.065Z,45.64
2023-04-13T17:34:20.947Z,45.72
2023-04-13T17:36:48.887Z,46.00
2023-04-13T17:39:16.860Z,46.35
2023-04-13T17:41:45.282Z,46.16
2023-04-13T17:44:13.111Z,46.82
2023-04-13T17:46:41.891Z,46.86
2023-04-13T17:49:09.614Z,47.48
2023-04-13T17:51:37.462Z,47.56
2023-04-13T17:54:07.945Z,47.78
2023-04-13T17:56:35.759Z,48.11
2023-04-13T17:59:03.679Z,48.33
2023-04-13T18:01:33.266Z,48.36
2023-04-13T18:04:01.489Z,48.69
2023-04-13T18:06:30.558Z,48.61
2023-04-13T18:08:58.638Z,48.92
2023-04-13T18:11:26.745Z,48.95
2023-04-13T18:13:54.605Z,48.98
2023-04-13T18:16:22.808Z,49.23
2023-04-13T18:18:51.504Z,49.43
2023-04-13T18:21:19.706Z,49.89
2023-04-13T18:23:47.723Z,50.22
2023-04-13T18:26:16.264Z,50.42
2023-04-13T18:28:44.350Z,50.46
2023-04-13T18:31:14.625Z,50.75
2023-04-13T18:33:42.693Z,51.15
2023-04-13T18:36:17.602Z,51.61
2023-04-13T18:38:46.249Z,51.55
2023-04-13T18:41:14.225Z,51.73
2023-04-13T18:43:42.568Z,52.10
2023-04-13T18:46:12.041Z,52.19
2023-04-13T18:48:39.992Z,52.47
2023-04-13T18:51:10.020Z,52.56
2023-04-13T18:53:38.926Z,52.46
2023-04-13T18:56:31.934Z,52.86
2023-04-13T18:58:59.822Z,53.44
2023-04-13T19:01:27.800Z,53.49
2023-04-13T19:03:57.021Z,53.85
2023-04-13T19:06:26.453Z,53.96
2023-04-13T19:08:54.640Z,54.30
2023-04-13T19:11:24.667Z,54.38
2023-04-13T19:13:53.011Z,54.31
2023-04-13T19:16:21.974Z,54.51
2023-04-13T19:18:50.067Z,54.54
2023-04-13T19:21:18.880Z,54.54
2023-04-13T19:23:47.008Z,54.57
2023-04-13T19:26:15.798Z,54.82
2023-04-13T19:28:44.107Z,54.97
2023-04-13T19:31:12.419Z,55.08
2023-04-13T19:33:40.682Z,55.31
2023-04-13T19:36:08.619Z,55.58
2023-04-13T19:38:36.640Z,55.60
2023-04-13T19:41:04.877Z,55.86
2023-04-13T19:43:32.941Z,56.14
2023-04-13T19:46:03.339Z,56.52
2023-04-13T19:48:31.759Z,56.76
2023-04-13T19:50:59.825Z,57.05
2023-04-13T19:53:27.691Z,57.39
2023-04-13T19:55:57.007Z,57.61
2023-04-13T19:58:24.864Z,57.95
2023-04-13T20:00:52.651Z,58.19
2023-04-13T20:03:21.457Z,58.61
2023-04-13T20:05:49.659Z,58.99
2023-04-13T20:08:17.886Z,59.28
2023-04-13T20:10:45.887Z,59.78
2023-04-13T20:13:13.842Z,60.16
2023-04-13T20:15:41.997Z,60.64
2023-04-13T20:18:10.500Z,60.99
2023-04-13T20:20:38.678Z,61.33
2023-04-13T20:23:08.108Z,61.66
2023-04-13T20:25:40.376Z,61.83
2023-04-13T20:28:10.409Z,62.18
2023-04-13T20:30:38.909Z,62.56
2023-04-13T20:33:07.395Z,63.17
2023-04-13T20:35:35.662Z,63.40
2023-04-13T20:38:05.417Z,63.61
2023-04-13T20:40:36.321Z,63.87
2023-04-13T20:43:06.411Z,64.17
2023-04-13T20:45:36.382Z,64.59
2023-04-13T20:50:36.060Z,65.01
2023-04-13T20:53:05.423Z,65.21
2023-04-13T20:55:33.411Z,65.54
2023-04-13T20:58:01.952Z,66.03
2023-04-13T21:08:06.041Z,67.09
2023-04-13T21:10:34.271Z,67.24
2023-04-13T21:13:03.790Z,67.70
2023-04-13T21:15:31.802Z,67.67
2023-04-13T21:18:00.241Z,68.10
2023-04-13T21:20:28.158Z,68.23
2023-04-13T21:22:56.195Z,68.80
2023-04-13T21:25:24.283Z,68.96
2023-04-13T21:27:52.146Z,69.25
2023-04-13T21:30:19.934Z,69.34
2023-04-13T21:32:47.882Z,69.65
2023-04-13T21:35:17.402Z,69.71
2023-04-13T21:37:45.177Z,69.97
2023-04-13T21:40:13.074Z,69.99
2023-04-13T21:42:40.892Z,70.33
2023-04-13T21:45:09.243Z,70.45
2023-04-13T21:47:37.130Z,70.61
2023-04-13T21:50:05.814Z,70.73
2023-04-13T21:52:33.806Z,71.00
2023-04-13T21:55:03.128Z,71.24
2023-04-13T21:57:30.956Z,71.28
2023-04-13T21:59:58.782Z,71.27
2023-04-13T22:02:26.939Z,71.70
2023-04-13T22:04:54.925Z,71.77
2023-04-13T22:07:35.186Z,71.96
2023-04-13T22:10:08.294Z,72.27
2023-04-13T22:12:36.504Z,72.61
2023-04-13T22:15:04.989Z,72.78
2023-04-13T22:17:32.870Z,72.79
2023-04-13T22:20:00.716Z,72.87
2023-04-13T22:22:28.485Z,73.36
2023-04-13T22:24:56.387Z,73.58
2023-04-13T22:27:24.119Z,74.02
2023-04-13T22:29:54.788Z,74.35
2023-04-13T22:32:22.624Z,74.30
2023-04-13T22:34:50.748Z,74.55
2023-04-13T22:37:18.499Z,74.78
2023-04-13T22:39:47.350Z,74.87
2023-04-13T22:42:17.139Z,75.09
2023-04-13T22:44:44.867Z,75.31
2023-04-13T22:47:12.736Z,75.51
2023-04-13T22:49:40.690Z,75.79
2023-04-13T22:52:08.691Z,76.08
2023-04-13T22:54:36.435Z,76.21
2023-04-13T22:57:05.417Z,76.44
2023-04-13T22:59:33.408Z,76.46
2023-04-13T23:02:01.694Z,76.44
2023-04-13T23:04:30.229Z,76.53
2023-04-13T23:06:58.095Z,76.76
2023-04-13T23:09:25.879Z,76.84
2023-04-13T23:11:53.697Z,76.74
2023-04-13T23:14:22.649Z,76.80
2023-04-13T23:16:51.107Z,76.91
2023-04-13T23:19:19.125Z,76.78
2023-04-13T23:21:46.944Z,76.82
2023-04-13T23:24:14.875Z,76.96
2023-04-13T23:26:42.687Z,77.26
2023-04-13T23:29:10.541Z,77.22
2023-04-13T23:31:38.356Z,77.20
2023-04-13T23:34:06.425Z,77.43
2023-04-13T23:36:34.192Z,77.53
2023-04-13T23:39:02.199Z,77.58
2023-04-13T23:41:30.325Z,77.57
2023-04-13T23:43:58.694Z,77.88
2023-04-13T23:46:26.529Z,77.83
2023-04-13T23:48:54.305Z,77.79
2023-04-13T23:51:22.438Z,78.06
2023-04-13T23:53:50.171Z,78.15
2023-04-13T23:56:18.029Z,78.25
2023-04-13T23:58:45.804Z,78.36
